createdAt,value
2018-11-03T00:00:33.655Z,99.99
2018-11-03T00:01:33.635Z,99.99
2018-11-03T00:02:33.622Z,99.99
2018-11-03T00:03:33.606Z,99.99
2018-11-03T00:04:33.593Z,99.99
2018-11-03T00:05:33.580Z,99.99
2018-11-03T00:06:33.566Z,99.99
2018-11-03T00:07:33.551Z,99.99
2018-11-03T00:08:33.537Z,99.99
2018-11-03T00:09:33.524Z,99.99
2018-11-03T00:10:33.511Z,99.99
2018-11-03T00:11:33.496Z,99.99
2018-11-03T00:12:33.886Z,99.99
2018-11-03T00:13:33.470Z,99.99
2018-11-03T00:14:33.456Z,99.99
2018-11-03T00:15:33.441Z,99.99
2018-11-03T00:16:33.428Z,99.99
2018-11-03T00:17:33.415Z,99.99
2018-11-03T00:18:33.410Z,99.99
2018-11-03T00:19:33.386Z,99.99
2018-11-03T00:20:33.373Z,99.99
2018-11-03T00:21:33.359Z,99.99
2018-11-03T00:22:33.346Z,99.99
2018-11-03T00:23:33.331Z,99.99
2018-11-03T00:24:33.318Z,99.99
2018-11-03T00:25:33.309Z,99.99
2018-11-03T00:26:33.291Z,99.99
2018-11-03T00:27:33.275Z,99.99
2018-11-03T00:28:33.262Z,99.99
2018-11-03T00:29:33.250Z,99.99
2018-11-03T00:30:33.235Z,99.99
2018-11-03T00:31:33.225Z,99.99
2018-11-03T00:32:33.206Z,99.99
2018-11-03T00:33:33.193Z,99.99
2018-11-03T00:34:33.180Z,99.99
2018-11-03T00:35:33.165Z,99.99
2018-11-03T00:37:33.139Z,99.99
2018-11-03T00:38:33.125Z,99.99
2018-11-03T00:39:33.362Z,99.99
2018-11-03T00:40:33.126Z,99.99
2018-11-03T00:41:33.086Z,99.99
2018-11-03T00:42:33.072Z,99.99
2018-11-03T00:43:33.057Z,99.99
2018-11-03T00:44:33.085Z,99.99
2018-11-03T00:45:33.034Z,99.99
2018-11-03T00:46:33.020Z,99.99
2018-11-03T00:47:33.007Z,99.99
2018-11-03T00:48:32.990Z,99.99
2018-11-03T00:49:32.982Z,99.99
2018-11-03T00:50:32.966Z,99.99
2018-11-03T00:51:32.949Z,99.99
2018-11-03T00:52:32.936Z,99.99
2018-11-03T00:53:32.923Z,99.99
2018-11-03T00:54:32.910Z,99.99
2018-11-03T00:55:32.897Z,99.99
2018-11-03T00:56:32.886Z,99.99
2018-11-03T00:57:32.869Z,99.99
2018-11-03T00:58:32.855Z,99.99
2018-11-03T00:59:32.842Z,99.99
2018-11-03T01:00:32.828Z,99.99
2018-11-03T01:01:32.815Z,99.99
2018-11-03T01:02:32.802Z,99.99
2018-11-03T01:03:32.787Z,99.99
2018-11-03T01:04:32.774Z,99.99
2018-11-03T01:05:32.761Z,99.99
2018-11-03T01:06:32.752Z,99.99
2018-11-03T01:07:32.734Z,99.99
2018-11-03T01:08:32.721Z,99.99
2018-11-03T01:09:32.707Z,99.99
2018-11-03T01:10:32.696Z,99.99
2018-11-03T01:11:32.682Z,99.99
2018-11-03T01:12:32.869Z,99.99
2018-11-03T01:13:32.653Z,99.99
2018-11-03T01:14:32.640Z,99.99
2018-11-03T01:15:32.625Z,99.99
2018-11-03T01:16:32.642Z,99.99
2018-11-03T01:17:32.599Z,99.99
2018-11-03T01:18:32.584Z,99.99
2018-11-03T01:19:32.570Z,99.99
2018-11-03T01:20:32.606Z,99.99
2018-11-03T01:21:32.542Z,99.99
2018-11-03T01:22:32.529Z,99.99
2018-11-03T01:23:32.535Z,99.99
2018-11-03T01:24:32.506Z,99.99
2018-11-03T01:25:32.492Z,99.99
2018-11-03T01:26:32.475Z,99.99
2018-11-03T01:27:32.460Z,99.99
2018-11-03T01:28:32.447Z,99.99
2018-11-03T01:29:32.434Z,99.99
2018-11-03T01:30:32.428Z,99.99
2018-11-03T01:31:32.406Z,99.99
2018-11-03T01:32:32.451Z,99.99
2018-11-03T01:33:32.378Z,99.99
2018-11-03T01:34:32.365Z,99.99
2018-11-03T01:35:32.351Z,99.99
2018-11-03T01:36:32.336Z,99.99
2018-11-03T01:37:32.324Z,99.99
2018-11-03T01:38:32.310Z,99.99
2018-11-03T01:39:32.295Z,99.99
2018-11-03T01:40:32.281Z,99.99
2018-11-03T01:41:32.268Z,99.99
2018-11-03T01:42:32.261Z,99.99
2018-11-03T01:43:32.243Z,99.99
2018-11-03T01:44:32.226Z,99.99
2018-11-03T01:45:32.225Z,99.99
2018-11-03T01:46:32.200Z,99.99
2018-11-03T01:47:32.185Z,99.99
2018-11-03T01:48:32.179Z,99.99
2018-11-03T01:49:32.159Z,99.99
2018-11-03T01:50:32.396Z,99.99
2018-11-03T01:51:32.131Z,99.99
2018-11-03T01:52:32.118Z,99.99
2018-11-03T01:53:32.105Z,99.99
2018-11-03T01:54:32.092Z,99.99
2018-11-03T01:55:32.077Z,99.99
2018-11-03T01:56:32.064Z,99.99
2018-11-03T01:57:32.050Z,99.99
2018-11-03T01:58:32.036Z,99.99
2018-11-03T01:59:32.026Z,99.99
2018-11-03T02:00:32.018Z,99.99
2018-11-03T02:01:31.995Z,99.99
2018-11-03T02:02:31.983Z,99.99
2018-11-03T02:03:31.969Z,99.99
2018-11-03T02:04:31.955Z,99.99
2018-11-03T02:05:31.941Z,99.99
2018-11-03T02:06:31.928Z,99.99
2018-11-03T02:07:31.913Z,99.99
2018-11-03T02:08:31.900Z,99.99
2018-11-03T02:09:31.887Z,99.99
2018-11-03T02:10:31.873Z,99.99
2018-11-03T02:11:31.860Z,99.99
2018-11-03T02:12:31.845Z,99.99
2018-11-03T02:13:31.831Z,99.99
2018-11-03T02:14:31.818Z,99.99
2018-11-03T02:15:31.804Z,99.99
2018-11-03T02:16:31.790Z,99.99
2018-11-03T02:17:31.777Z,99.99
2018-11-03T02:18:31.763Z,99.99
2018-11-03T02:19:31.753Z,99.99
2018-11-03T02:20:31.736Z,99.99
2018-11-03T02:21:31.722Z,99.99
2018-11-03T02:22:31.707Z,99.99
2018-11-03T02:23:31.695Z,99.99
2018-11-03T02:24:31.679Z,99.99
2018-11-03T02:25:31.667Z,99.99
2018-11-03T02:26:31.653Z,99.99
2018-11-03T02:27:31.639Z,99.99
2018-11-03T02:28:31.626Z,99.99
2018-11-03T02:29:31.612Z,99.99
2018-11-03T02:30:31.600Z,99.99
2018-11-03T02:31:31.585Z,99.99
2018-11-03T02:32:31.571Z,99.99
2018-11-03T02:33:31.557Z,99.99
2018-11-03T02:34:31.549Z,99.99
2018-11-03T02:35:31.529Z,99.99
2018-11-03T02:36:31.717Z,99.99
2018-11-03T02:37:31.501Z,99.99
2018-11-03T02:38:31.488Z,99.99
2018-11-03T02:39:31.474Z,99.99
2018-11-03T02:40:31.460Z,99.99
2018-11-03T02:41:31.447Z,99.99
2018-11-03T02:42:31.436Z,99.99
2018-11-03T02:43:31.419Z,99.99
2018-11-03T02:44:31.404Z,99.99
2018-11-03T02:45:31.391Z,99.99
2018-11-03T02:46:31.376Z,99.99
2018-11-03T02:47:31.363Z,99.99
2018-11-03T02:48:31.347Z,99.99
2018-11-03T02:49:31.333Z,99.99
2018-11-03T02:50:31.319Z,99.99
2018-11-03T02:51:31.305Z,99.99
2018-11-03T02:52:31.291Z,99.99
2018-11-03T02:53:31.276Z,99.99
2018-11-03T02:54:31.261Z,99.99
2018-11-03T02:55:31.447Z,99.99
2018-11-03T02:56:31.232Z,99.99
2018-11-03T02:57:31.219Z,99.99
2018-11-03T02:58:31.206Z,99.99
2018-11-03T02:59:31.189Z,99.99
2018-11-03T03:00:31.175Z,99.99
2018-11-03T03:01:31.412Z,99.99
2018-11-03T03:02:31.152Z,99.99
2018-11-03T03:03:31.134Z,99.99
2018-11-03T03:04:31.117Z,99.99
2018-11-03T03:05:31.104Z,99.99
2018-11-03T03:06:31.102Z,99.99
2018-11-03T03:07:31.077Z,99.99
2018-11-03T03:08:31.060Z,99.99
2018-11-03T03:09:31.076Z,99.99
2018-11-03T03:10:31.031Z,99.99
2018-11-03T03:11:31.017Z,99.99
2018-11-03T03:12:31.003Z,99.99
2018-11-03T03:13:31.001Z,99.99
2018-11-03T03:14:30.976Z,99.99
2018-11-03T03:15:30.969Z,99.99
2018-11-03T03:16:30.945Z,99.99
2018-11-03T03:17:30.930Z,99.99
2018-11-03T03:18:30.921Z,99.99
2018-11-03T03:19:30.902Z,99.99
2018-11-03T03:20:30.889Z,99.99
2018-11-03T03:21:30.876Z,99.99
2018-11-03T03:22:30.859Z,99.99
2018-11-03T03:23:30.846Z,99.99
2018-11-03T03:24:30.903Z,99.99
2018-11-03T03:25:30.815Z,99.99
2018-11-03T03:26:30.805Z,99.99
2018-11-03T03:27:30.788Z,99.99
2018-11-03T03:28:30.773Z,99.99
2018-11-03T03:29:30.835Z,99.99
2018-11-03T03:30:30.744Z,99.99
2018-11-03T03:31:30.739Z,99.99
2018-11-03T03:32:30.716Z,99.99
2018-11-03T03:33:30.953Z,99.99
2018-11-03T03:34:30.689Z,99.99
2018-11-03T03:35:30.673Z,99.99
2018-11-03T03:36:30.658Z,99.99
2018-11-03T03:37:30.645Z,99.99
2018-11-03T03:38:30.630Z,99.99
2018-11-03T03:39:30.614Z,99.99
2018-11-03T03:40:30.602Z,99.99
2018-11-03T03:41:30.587Z,99.99
2018-11-03T03:42:30.574Z,99.99
2018-11-03T03:43:30.557Z,99.99
2018-11-03T03:44:30.546Z,99.99
2018-11-03T03:45:30.531Z,99.99
2018-11-03T03:46:30.516Z,99.99
2018-11-03T03:47:30.500Z,99.99
2018-11-03T03:48:30.487Z,99.99
2018-11-03T03:49:30.472Z,99.99
2018-11-03T03:50:30.458Z,99.99
2018-11-03T03:51:30.444Z,99.99
2018-11-03T03:52:30.428Z,99.99
2018-11-03T03:53:30.425Z,99.99
2018-11-03T03:54:30.404Z,99.99
2018-11-03T03:55:30.391Z,99.99
2018-11-03T03:56:30.369Z,99.99
2018-11-03T03:57:30.354Z,99.99
2018-11-03T03:58:30.340Z,99.99
2018-11-03T03:59:30.325Z,99.99
2018-11-03T04:00:30.315Z,99.99
2018-11-03T04:01:30.296Z,99.99
2018-11-03T04:02:30.281Z,99.99
2018-11-03T04:03:30.265Z,99.99
2018-11-03T04:04:30.253Z,99.99
2018-11-03T04:05:30.242Z,99.99
2018-11-03T04:06:30.224Z,99.99
2018-11-03T04:07:30.208Z,99.99
2018-11-03T04:08:30.237Z,99.99
2018-11-03T04:09:30.181Z,99.99
2018-11-03T04:10:30.165Z,99.99
2018-11-03T04:11:30.151Z,99.99
2018-11-03T04:12:30.145Z,99.99
2018-11-03T04:13:30.128Z,99.99
2018-11-03T04:14:30.110Z,99.99
2018-11-03T04:15:30.094Z,99.99
2018-11-03T04:16:30.080Z,99.99
2018-11-03T04:17:30.064Z,99.99
2018-11-03T04:18:30.054Z,99.99
2018-11-03T04:19:30.039Z,99.99
2018-11-03T04:20:30.021Z,99.99
2018-11-03T04:21:30.008Z,99.99
2018-11-03T04:22:29.993Z,99.99
2018-11-03T04:23:29.978Z,99.99
2018-11-03T04:24:29.963Z,99.99
2018-11-03T04:25:29.949Z,99.99
2018-11-03T04:26:29.934Z,99.99
2018-11-03T04:27:29.919Z,99.99
2018-11-03T04:28:29.940Z,99.99
2018-11-03T04:29:29.896Z,99.99
2018-11-03T04:30:29.878Z,99.99
2018-11-03T04:31:29.867Z,99.99
2018-11-03T04:32:29.848Z,99.99
2018-11-03T04:33:29.832Z,99.99
2018-11-03T04:34:30.075Z,99.99
2018-11-03T04:35:29.803Z,99.99
2018-11-03T04:36:29.789Z,99.99
2018-11-03T04:37:29.776Z,99.99
2018-11-03T04:38:29.761Z,99.99
2018-11-03T04:39:29.748Z,99.99
2018-11-03T04:40:29.730Z,99.99
2018-11-03T04:41:29.720Z,99.99
2018-11-03T04:42:29.767Z,99.99
2018-11-03T04:43:29.689Z,99.99
2018-11-03T04:44:29.710Z,99.99
2018-11-03T04:45:29.875Z,99.99
2018-11-03T04:46:29.645Z,99.99
2018-11-03T04:47:29.629Z,99.99
2018-11-03T04:48:29.614Z,99.99
2018-11-03T04:49:29.602Z,99.99
2018-11-03T04:50:29.585Z,99.99
2018-11-03T04:51:29.575Z,99.99
2018-11-03T04:52:29.559Z,99.99
2018-11-03T04:53:29.542Z,99.99
2018-11-03T04:54:29.547Z,99.99
2018-11-03T04:55:29.514Z,99.99
2018-11-03T04:56:29.528Z,99.99
2018-11-03T04:57:29.483Z,99.99
2018-11-03T04:58:29.473Z,99.99
2018-11-03T04:59:29.458Z,99.99
2018-11-03T05:00:29.440Z,99.99
2018-11-03T05:01:29.425Z,99.99
2018-11-03T05:02:29.425Z,99.99
2018-11-03T05:03:29.397Z,99.99
2018-11-03T05:04:29.382Z,99.99
2018-11-03T05:05:29.371Z,99.99
2018-11-03T05:06:29.355Z,99.99
2018-11-03T05:07:29.339Z,99.99
2018-11-03T05:08:29.325Z,99.99
2018-11-03T05:09:29.312Z,99.99
2018-11-03T05:10:29.428Z,99.99
2018-11-03T05:11:29.284Z,99.99
2018-11-03T05:12:29.300Z,99.99
2018-11-03T05:13:29.255Z,99.99
2018-11-03T05:14:29.240Z,99.99
2018-11-03T05:15:29.224Z,99.99
2018-11-03T05:16:29.210Z,99.99
2018-11-03T05:17:29.201Z,99.99
2018-11-03T05:18:29.183Z,99.99
2018-11-03T05:19:29.167Z,99.99
2018-11-03T05:20:29.154Z,99.99
2018-11-03T05:21:29.189Z,99.99
2018-11-03T05:22:29.128Z,99.99
2018-11-03T05:23:29.110Z,99.99
2018-11-03T05:24:29.147Z,99.99
2018-11-03T05:25:29.084Z,99.99
2018-11-03T05:26:29.070Z,99.99
2018-11-03T05:27:29.053Z,99.99
2018-11-03T05:28:29.091Z,99.99
2018-11-03T05:29:29.025Z,99.99
2018-11-03T05:30:29.010Z,99.99
2018-11-03T05:31:28.998Z,99.99
2018-11-03T05:32:28.982Z,99.99
2018-11-03T05:33:28.967Z,99.99
2018-11-03T05:34:28.954Z,99.99
2018-11-03T05:35:28.938Z,99.99
2018-11-03T05:36:28.925Z,99.99
2018-11-03T05:37:28.955Z,99.99
2018-11-03T05:38:28.895Z,99.99
2018-11-03T05:39:28.880Z,99.99
2018-11-03T05:40:28.865Z,99.99
2018-11-03T05:41:28.852Z,99.99
2018-11-03T05:42:28.839Z,99.99
2018-11-03T05:43:28.823Z,99.99
2018-11-03T05:44:28.809Z,99.99
2018-11-03T05:45:28.794Z,99.99
2018-11-03T05:46:28.870Z,99.99
2018-11-03T05:47:28.766Z,99.99
2018-11-03T05:48:28.755Z,99.99
2018-11-03T05:49:28.739Z,99.99
2018-11-03T05:50:28.925Z,99.99
2018-11-03T05:51:28.708Z,99.99
2018-11-03T05:52:28.697Z,99.99
2018-11-03T05:53:28.685Z,99.99
2018-11-03T05:54:28.667Z,99.99
2018-11-03T05:55:28.652Z,99.99
2018-11-03T05:56:28.642Z,99.99
2018-11-03T05:57:28.623Z,99.99
2018-11-03T05:58:28.617Z,99.99
2018-11-03T05:59:28.595Z,99.99
2018-11-03T06:00:28.581Z,99.99
2018-11-03T06:01:28.568Z,99.99
2018-11-03T06:02:28.553Z,99.99
2018-11-03T06:03:28.540Z,99.99
2018-11-03T06:04:28.525Z,99.99
2018-11-03T06:05:28.540Z,99.99
2018-11-03T06:06:28.497Z,99.99
2018-11-03T06:07:28.482Z,99.99
2018-11-03T06:08:28.472Z,99.99
2018-11-03T06:09:28.458Z,99.99
2018-11-03T06:10:28.444Z,99.99
2018-11-03T06:11:28.423Z,99.99
2018-11-03T06:12:28.410Z,99.99
2018-11-03T06:13:28.430Z,99.99
2018-11-03T06:14:28.381Z,99.99
2018-11-03T06:15:28.375Z,99.99
2018-11-03T06:16:28.355Z,99.99
2018-11-03T06:17:28.337Z,99.99
2018-11-03T06:18:28.323Z,99.99
2018-11-03T06:19:28.309Z,99.99
2018-11-03T06:20:28.293Z,99.99
2018-11-03T06:21:28.278Z,99.99
2018-11-03T06:22:28.484Z,99.99
2018-11-03T06:23:28.313Z,99.99
2018-11-03T06:24:28.234Z,99.99
2018-11-03T06:25:28.221Z,99.99
2018-11-03T06:26:28.207Z,99.99
2018-11-03T06:27:28.191Z,99.99
2018-11-03T06:28:28.177Z,99.99
2018-11-03T06:29:28.167Z,99.99
2018-11-03T06:30:28.150Z,99.99
2018-11-03T06:31:28.137Z,99.99
2018-11-03T06:32:28.146Z,99.99
2018-11-03T06:33:28.106Z,99.99
2018-11-03T06:34:28.094Z,99.99
2018-11-03T06:35:28.253Z,99.99
2018-11-03T06:36:28.065Z,99.99
2018-11-03T06:37:28.051Z,99.99
2018-11-03T06:38:28.038Z,99.99
2018-11-03T06:39:28.021Z,99.99
2018-11-03T06:40:28.008Z,99.99
2018-11-03T06:41:28.043Z,99.99
2018-11-03T06:42:27.979Z,99.99
2018-11-03T06:43:27.968Z,99.99
2018-11-03T06:44:28.158Z,99.99
2018-11-03T06:45:27.941Z,99.99
2018-11-03T06:46:28.032Z,99.99
2018-11-03T06:47:28.018Z,99.99
2018-11-03T06:48:27.897Z,99.99
2018-11-03T06:49:27.883Z,99.99
2018-11-03T06:50:27.868Z,99.99
2018-11-03T06:51:27.855Z,99.99
2018-11-03T06:52:27.845Z,99.99
2018-11-03T06:53:27.827Z,99.99
2018-11-03T06:54:27.816Z,99.99
2018-11-03T06:55:27.798Z,99.99
2018-11-03T06:56:27.785Z,99.99
2018-11-03T06:57:27.771Z,99.99
2018-11-03T06:58:27.757Z,99.99
2018-11-03T07:00:27.937Z,99.99
2018-11-03T07:01:27.917Z,99.99
2018-11-03T07:02:27.702Z,99.99
2018-11-03T07:03:27.691Z,99.99
2018-11-03T07:04:27.677Z,99.99
2018-11-03T07:05:27.662Z,99.99
2018-11-03T07:06:27.654Z,99.99
2018-11-03T07:07:27.631Z,99.99
2018-11-03T07:08:27.618Z,99.99
2018-11-03T07:09:27.604Z,99.99
2018-11-03T07:10:27.853Z,99.99
2018-11-03T07:11:27.687Z,99.99
2018-11-03T07:12:27.841Z,99.99
2018-11-03T07:13:27.677Z,99.99
2018-11-03T07:14:27.943Z,99.99
2018-11-03T07:15:27.525Z,99.99
2018-11-03T07:16:27.511Z,99.99
2018-11-03T07:17:27.501Z,99.99
2018-11-03T07:18:27.482Z,99.99
2018-11-03T07:19:27.469Z,99.99
2018-11-03T07:20:27.460Z,99.99
2018-11-03T07:21:27.447Z,99.99
2018-11-03T07:22:27.428Z,99.99
2018-11-03T07:23:27.418Z,99.99
2018-11-03T07:24:27.401Z,99.99
2018-11-03T07:25:27.403Z,99.99
2018-11-03T07:26:27.381Z,99.99
2018-11-03T07:27:27.362Z,99.99
2018-11-03T07:28:27.355Z,99.99
2018-11-03T07:29:27.392Z,99.99
2018-11-03T07:30:27.527Z,99.99
2018-11-03T07:31:27.310Z,99.99
2018-11-03T07:32:27.300Z,99.99
2018-11-03T07:33:27.287Z,99.99
2018-11-03T07:34:27.281Z,99.99
2018-11-03T07:35:27.262Z,99.99
2018-11-03T07:36:27.250Z,99.99
2018-11-03T07:37:27.240Z,99.99
2018-11-03T07:38:27.223Z,99.99
2018-11-03T07:39:27.209Z,99.99
2018-11-03T07:40:27.200Z,99.99
2018-11-03T07:41:27.368Z,99.99
2018-11-03T07:42:27.223Z,99.99
2018-11-03T07:43:27.159Z,99.99
2018-11-03T07:44:27.152Z,99.99
2018-11-03T07:45:27.136Z,99.99
2018-11-03T07:46:27.123Z,99.99
2018-11-03T07:47:27.120Z,99.99
2018-11-03T07:49:27.405Z,99.99
2018-11-03T07:50:27.074Z,99.99
2018-11-03T07:51:27.058Z,99.99
2018-11-03T07:52:27.047Z,99.99
2018-11-03T07:53:27.034Z,99.99
2018-11-03T07:54:27.058Z,99.99
2018-11-03T07:55:27.011Z,99.99
2018-11-03T07:56:27.000Z,99.99
2018-11-03T07:57:27.027Z,99.99
2018-11-03T07:58:26.973Z,99.99
2018-11-03T07:59:26.962Z,99.99
2018-11-03T08:00:27.080Z,99.99
2018-11-03T08:01:26.935Z,99.99
2018-11-03T08:02:26.957Z,99.99
2018-11-03T08:03:26.911Z,99.99
2018-11-03T08:04:26.897Z,99.99
2018-11-03T08:05:26.887Z,99.99
2018-11-03T08:06:26.872Z,99.99
2018-11-03T08:07:26.868Z,99.99
2018-11-03T08:08:26.894Z,99.99
2018-11-03T08:09:26.839Z,99.99
2018-11-03T08:10:26.823Z,99.99
2018-11-03T08:11:26.809Z,99.99
2018-11-03T08:12:26.794Z,99.99
2018-11-03T08:14:26.769Z,99.99
2018-11-03T08:15:26.835Z,99.99
2018-11-03T08:16:26.744Z,99.99
2018-11-03T08:17:26.738Z,99.99
2018-11-03T08:18:26.718Z,99.99
2018-11-03T08:19:26.709Z,99.99
2018-11-03T08:20:26.692Z,99.99
2018-11-03T08:21:26.679Z,99.99
2018-11-03T08:22:26.666Z,99.99
2018-11-03T08:23:26.654Z,99.99
2018-11-03T08:24:26.641Z,99.99
2018-11-03T08:25:26.628Z,99.99
2018-11-03T08:26:26.616Z,99.99
2018-11-03T08:27:26.607Z,99.99
2018-11-03T08:28:26.591Z,99.99
2018-11-03T08:29:26.781Z,99.99
2018-11-03T08:30:26.568Z,99.99
2018-11-03T08:31:26.559Z,99.99
2018-11-03T08:32:26.545Z,99.99
2018-11-03T08:33:26.529Z,99.99
2018-11-03T08:34:26.518Z,99.99
2018-11-03T08:35:26.506Z,99.99
2018-11-03T08:37:26.480Z,99.99
2018-11-03T08:38:26.470Z,99.99
2018-11-03T08:39:26.518Z,99.99
2018-11-03T08:40:26.446Z,99.99
2018-11-03T08:41:26.431Z,99.99
2018-11-03T08:42:26.424Z,99.99
2018-11-03T08:43:26.408Z,99.99
2018-11-03T08:44:26.398Z,99.99
2018-11-03T08:45:26.385Z,99.99
2018-11-03T08:46:26.373Z,99.99
2018-11-03T08:47:26.361Z,99.99
2018-11-03T08:48:26.483Z,99.99
2018-11-03T08:49:26.340Z,99.99
2018-11-03T08:50:26.326Z,99.99
2018-11-03T08:51:26.316Z,99.39
2018-11-03T08:52:26.303Z,99.58
2018-11-03T08:53:26.293Z,97.97
2018-11-03T08:54:26.286Z,97.83
2018-11-03T08:55:26.275Z,97.55
2018-11-03T08:56:26.260Z,97.45
2018-11-03T08:57:26.250Z,97.74
2018-11-03T08:58:26.239Z,97.36
2018-11-03T08:59:26.296Z,96.97
2018-11-03T09:00:26.222Z,97.41
2018-11-03T09:01:26.206Z,96.45
2018-11-03T09:02:26.196Z,95.70
2018-11-03T09:03:26.185Z,94.65
2018-11-03T09:04:26.174Z,94.18
2018-11-03T09:05:26.239Z,93.75
2018-11-03T09:06:26.157Z,93.46
2018-11-03T09:07:26.144Z,92.61
2018-11-03T09:08:26.141Z,91.13
2018-11-03T09:09:26.131Z,90.28
2018-11-03T09:10:26.122Z,88.23
2018-11-03T09:11:26.112Z,87.42
2018-11-03T09:12:26.103Z,86.28
2018-11-03T09:13:26.095Z,85.37
2018-11-03T09:14:26.152Z,85.08
2018-11-03T09:15:26.087Z,84.80
2018-11-03T09:16:26.079Z,84.33
2018-11-03T09:17:26.069Z,83.37
2018-11-03T09:18:26.063Z,83.56
2018-11-03T09:19:26.056Z,81.95
2018-11-03T09:20:26.054Z,82.65
2018-11-03T09:21:26.052Z,81.70
2018-11-03T09:22:26.110Z,80.31
2018-11-03T09:23:26.036Z,79.36
2018-11-03T09:24:26.236Z,78.03
2018-11-03T09:25:26.028Z,78.78
2018-11-03T09:26:26.023Z,78.69
2018-11-03T09:27:26.018Z,77.55
2018-11-03T09:28:26.014Z,76.59
2018-11-03T09:29:26.012Z,76.88
2018-11-03T09:30:26.010Z,78.98
2018-11-03T09:31:26.001Z,77.83
2018-11-03T09:32:25.995Z,78.12
2018-11-03T09:33:25.992Z,77.26
2018-11-03T09:34:26.041Z,77.17
2018-11-03T09:35:25.983Z,76.50
2018-11-03T09:36:25.980Z,76.79
2018-11-03T09:37:25.981Z,77.36
2018-11-03T09:38:26.024Z,76.37
2018-11-03T09:39:25.965Z,77.70
2018-11-03T09:40:26.163Z,78.52
2018-11-03T09:41:25.956Z,79.60
2018-11-03T09:42:25.955Z,80.55
2018-11-03T09:43:26.040Z,79.89
2018-11-03T09:44:25.941Z,78.37
2018-11-03T09:45:25.961Z,77.42
2018-11-03T09:46:25.932Z,78.08
2018-11-03T09:47:25.927Z,78.94
2018-11-03T09:48:25.926Z,77.51
2018-11-03T09:49:25.921Z,77.22
2018-11-03T09:50:25.924Z,77.61
2018-11-03T09:51:25.907Z,77.22
2018-11-03T09:52:25.905Z,77.98
2018-11-03T09:53:25.899Z,77.42
2018-11-03T09:54:25.893Z,77.98
2018-11-03T09:55:25.888Z,78.65
2018-11-03T09:56:25.935Z,78.85
2018-11-03T09:57:25.881Z,78.69
2018-11-03T09:58:25.880Z,79.64
2018-11-03T09:59:25.870Z,77.83
2018-11-03T10:00:25.917Z,77.07
2018-11-03T10:01:25.861Z,76.98
2018-11-03T10:02:25.856Z,77.17
2018-11-03T10:03:25.851Z,76.69
2018-11-03T10:04:25.844Z,75.36
2018-11-03T10:05:25.840Z,74.60
2018-11-03T10:06:25.881Z,75.45
2018-11-03T10:07:25.827Z,77.11
2018-11-03T10:08:25.824Z,78.25
2018-11-03T10:09:25.821Z,76.54
2018-11-03T10:10:25.814Z,74.88
2018-11-03T10:11:25.813Z,75.55
2018-11-03T10:12:25.805Z,75.55
2018-11-03T10:13:25.798Z,76.12
2018-11-03T10:14:25.796Z,76.31
2018-11-03T10:15:25.824Z,75.07
2018-11-03T10:16:25.783Z,75.64
2018-11-03T10:17:25.779Z,76.79
2018-11-03T10:18:25.813Z,76.12
2018-11-03T10:19:25.766Z,76.21
2018-11-03T10:20:25.766Z,75.64
2018-11-03T10:21:25.755Z,75.55
2018-11-03T10:22:25.895Z,76.12
2018-11-03T10:23:25.743Z,76.98
2018-11-03T10:24:25.937Z,76.88
2018-11-03T10:25:25.730Z,76.40
2018-11-03T10:26:25.727Z,76.40
2018-11-03T10:27:25.718Z,77.45
2018-11-03T10:28:25.713Z,76.59
2018-11-03T10:29:25.705Z,76.88
2018-11-03T10:30:25.772Z,76.40
2018-11-03T10:31:25.693Z,76.25
2018-11-03T10:32:25.690Z,75.59
2018-11-03T10:33:25.717Z,75.68
2018-11-03T10:34:25.675Z,75.01
2018-11-03T10:35:25.707Z,74.63
2018-11-03T10:36:25.664Z,73.77
2018-11-03T10:37:25.664Z,74.10
2018-11-03T10:38:25.653Z,73.43
2018-11-03T10:39:25.648Z,73.62
2018-11-03T10:40:25.641Z,72.86
2018-11-03T10:41:25.637Z,72.57
2018-11-03T10:42:25.631Z,72.48
2018-11-03T10:43:25.625Z,72.86
2018-11-03T10:44:25.620Z,71.77
2018-11-03T10:45:25.816Z,73.14
2018-11-03T10:46:25.968Z,73.39
2018-11-03T10:47:25.601Z,73.33
2018-11-03T10:48:25.599Z,72.67
2018-11-03T10:49:25.590Z,72.28
2018-11-03T10:50:25.585Z,72.28
2018-11-03T10:51:25.578Z,69.81
2018-11-03T10:52:25.573Z,70.09
2018-11-03T10:53:25.614Z,70.47
2018-11-03T10:54:25.563Z,69.33
2018-11-03T10:55:25.556Z,70.42
2018-11-03T10:56:25.552Z,72.80
2018-11-03T10:57:25.547Z,72.32
2018-11-03T10:58:25.542Z,71.56
2018-11-03T10:59:25.542Z,71.18
2018-11-03T11:00:25.532Z,68.60
2018-11-03T11:01:25.529Z,68.54
2018-11-03T11:02:25.521Z,67.87
2018-11-03T11:03:25.553Z,67.11
2018-11-03T11:04:25.509Z,67.97
2018-11-03T11:05:25.510Z,68.63
2018-11-03T11:06:25.500Z,66.44
2018-11-03T11:07:25.494Z,66.44
2018-11-03T11:08:25.490Z,66.25
2018-11-03T11:09:25.483Z,65.58
2018-11-03T11:10:25.478Z,65.30
2018-11-03T11:11:25.674Z,65.74
2018-11-03T11:12:25.470Z,67.74
2018-11-03T11:13:25.460Z,68.35
2018-11-03T11:14:25.460Z,67.40
2018-11-03T11:15:25.449Z,67.36
2018-11-03T11:16:25.463Z,66.50
2018-11-03T11:17:25.440Z,67.27
2018-11-03T11:18:25.433Z,67.04
2018-11-03T11:19:25.427Z,66.85
2018-11-03T11:20:25.422Z,67.90
2018-11-03T11:21:25.418Z,67.90
2018-11-03T11:22:25.409Z,69.27
2018-11-03T11:23:25.449Z,68.60
2018-11-03T11:24:25.515Z,67.83
2018-11-03T11:25:25.537Z,67.46
2018-11-03T11:26:25.387Z,68.63
2018-11-03T11:27:25.409Z,67.11
2018-11-03T11:28:25.379Z,65.67
2018-11-03T11:29:25.368Z,65.39
2018-11-03T11:30:25.364Z,66.53
2018-11-03T11:31:25.423Z,66.56
2018-11-03T11:32:25.368Z,65.42
2018-11-03T11:33:25.351Z,63.70
2018-11-03T11:34:25.348Z,63.57
2018-11-03T11:35:25.338Z,65.39
2018-11-03T11:36:25.331Z,66.06
2018-11-03T11:37:25.346Z,65.52
2018-11-03T11:38:25.321Z,65.39
2018-11-03T11:39:25.319Z,65.20
2018-11-03T11:40:25.310Z,64.53
2018-11-03T11:41:25.304Z,64.91
2018-11-03T11:42:25.304Z,66.35
2018-11-03T11:43:25.294Z,68.06
2018-11-03T11:44:25.289Z,66.82
2018-11-03T11:45:25.286Z,69.02
2018-11-03T11:46:25.280Z,68.86
2018-11-03T11:47:25.275Z,67.14
2018-11-03T11:48:25.294Z,65.71
2018-11-03T11:49:25.271Z,65.23
2018-11-03T11:50:25.311Z,64.94
2018-11-03T11:51:25.257Z,64.94
2018-11-03T11:52:25.253Z,65.10
2018-11-03T11:53:25.248Z,65.61
2018-11-03T11:54:25.243Z,68.48
2018-11-03T11:55:25.238Z,66.47
2018-11-03T11:56:25.243Z,64.94
2018-11-03T11:57:25.241Z,64.56
2018-11-03T11:58:25.226Z,64.15
2018-11-03T11:59:25.221Z,64.62
2018-11-03T12:00:25.224Z,64.81
2018-11-03T12:01:25.240Z,65.87
2018-11-03T12:02:25.277Z,65.14
2018-11-03T12:03:25.203Z,64.09
2018-11-03T12:04:25.199Z,64.59
2018-11-03T12:05:25.401Z,64.02
2018-11-03T12:06:25.191Z,65.17
2018-11-03T12:07:25.187Z,65.64
2018-11-03T12:08:25.189Z,65.26
2018-11-03T12:09:25.178Z,65.84
2018-11-03T12:10:25.179Z,67.55
2018-11-03T12:11:25.169Z,66.13
2018-11-03T12:12:25.167Z,65.64
2018-11-03T12:13:25.161Z,65.84
2018-11-03T12:14:25.161Z,66.22
2018-11-03T12:15:25.153Z,65.45
2018-11-03T12:16:25.148Z,64.91
2018-11-03T12:17:25.144Z,64.43
2018-11-03T12:18:25.143Z,64.62
2018-11-03T12:19:25.137Z,65.55
2018-11-03T12:20:25.184Z,64.59
2018-11-03T12:21:25.134Z,65.17
2018-11-03T12:22:25.126Z,65.11
2018-11-03T12:23:25.124Z,65.36
2018-11-03T12:24:25.120Z,65.55
2018-11-03T12:25:25.201Z,66.22
2018-11-03T12:26:25.115Z,67.14
2018-11-03T12:27:25.109Z,66.76
2018-11-03T12:28:25.102Z,67.52
2018-11-03T12:29:25.097Z,67.24
2018-11-03T12:30:25.097Z,67.18
2018-11-03T12:31:25.090Z,66.50
2018-11-03T12:32:25.084Z,66.41
2018-11-03T12:33:25.080Z,68.04
2018-11-03T12:34:25.075Z,67.43
2018-11-03T12:35:25.072Z,68.00
2018-11-03T12:36:25.065Z,67.81
2018-11-03T12:37:25.063Z,67.81
2018-11-03T12:38:25.058Z,67.33
2018-11-03T12:39:25.254Z,67.08
2018-11-03T12:40:25.092Z,66.50
2018-11-03T12:41:25.168Z,66.41
2018-11-03T12:42:25.070Z,66.50
2018-11-03T12:43:25.033Z,65.64
2018-11-03T12:44:25.047Z,66.13
2018-11-03T12:45:25.039Z,66.79
2018-11-03T12:46:25.022Z,65.17
2018-11-03T12:47:25.015Z,65.17
2018-11-03T12:48:25.144Z,65.17
2018-11-03T12:49:25.008Z,64.40
2018-11-03T12:50:25.005Z,63.54
2018-11-03T12:51:24.993Z,62.21
2018-11-03T12:52:24.992Z,63.73
2018-11-03T12:53:24.983Z,63.83
2018-11-03T12:54:24.978Z,64.31
2018-11-03T12:55:25.102Z,62.78
2018-11-03T12:56:25.167Z,62.81
2018-11-03T12:57:24.960Z,63.00